createdAt,value
2023-05-10T00:03:59.677Z,100674.66
2023-05-10T00:09:02.222Z,100671.40
2023-05-10T00:14:04.923Z,100666.09
2023-05-10T00:19:07.606Z,100666.48
2023-05-10T00:24:10.184Z,100663.02
2023-05-10T00:29:12.860Z,100663.23
2023-05-10T00:34:15.797Z,100663.64
2023-05-10T00:39:18.406Z,100658.15
2023-05-10T00:44:20.966Z,100653.33
2023-05-10T00:49:23.874Z,100656.25
2023-05-10T00:54:26.608Z,100655.55
2023-05-10T00:59:30.138Z,100661.23
2023-05-10T01:04:32.686Z,100659.81
2023-05-10T01:09:35.644Z,100656.86
2023-05-10T01:14:38.538Z,100652.71
2023-05-10T01:19:41.344Z,100649.27
2023-05-10T01:25:06.272Z,100647.08
2023-05-10T01:35:54.860Z,100650.13
2023-05-10T01:41:12.700Z,100647.23
2023-05-10T01:46:25.642Z,100649.69
2023-05-10T01:51:36.438Z,100641.80
2023-05-10T01:56:41.659Z,100642.52
2023-05-10T02:01:46.068Z,100646.34
2023-05-10T02:06:49.659Z,100651.39
2023-05-10T02:11:54.810Z,100652.25
2023-05-10T02:16:59.553Z,100646.90
2023-05-10T02:22:04.289Z,100644.67
2023-05-10T02:27:07.859Z,100650.03
2023-05-10T02:32:11.718Z,100651.77
2023-05-10T02:37:21.441Z,100650.57
2023-05-10T02:42:28.773Z,100644.88
2023-05-10T02:47:31.421Z,100640.07
2023-05-10T02:52:47.679Z,100639.05
2023-05-10T02:57:57.739Z,100635.75
2023-05-10T03:03:00.450Z,100636.10
2023-05-10T03:08:05.140Z,100641.98
2023-05-10T03:13:30.621Z,100639.89
2023-05-10T03:18:55.574Z,100642.29
2023-05-10T03:24:04.040Z,100636.41
2023-05-10T03:29:07.348Z,100634.84
2023-05-10T03:34:10.030Z,100631.70
2023-05-10T03:39:12.526Z,100622.33
2023-05-10T03:44:15.100Z,100628.84
2023-05-10T03:49:17.649Z,100630.61
2023-05-10T03:54:20.294Z,100630.45
2023-05-10T03:59:22.811Z,100630.77
2023-05-10T04:04:25.394Z,100628.27
2023-05-10T04:09:27.985Z,100630.60
2023-05-10T04:14:30.586Z,100631.11
2023-05-10T04:19:33.862Z,100631.18
2023-05-10T04:24:36.408Z,100635.27
2023-05-10T04:29:39.345Z,100640.71
2023-05-10T04:34:41.932Z,100634.35
2023-05-10T04:39:45.298Z,100634.19
2023-05-10T04:44:48.038Z,100632.13
2023-05-10T04:49:50.641Z,100629.88
2023-05-10T04:54:53.249Z,100627.55
2023-05-10T04:59:56.008Z,100631.46
2023-05-10T05:05:01.515Z,100627.36
2023-05-10T05:10:04.593Z,100627.72
2023-05-10T05:15:09.881Z,100625.13
2023-05-10T05:20:13.660Z,100622.09
2023-05-10T05:25:16.917Z,100620.38
2023-05-10T05:30:19.990Z,100620.89
2023-05-10T05:35:22.573Z,100622.50
2023-05-10T05:40:25.259Z,100623.71
2023-05-10T05:45:27.924Z,100628.17
2023-05-10T05:50:30.533Z,100627.94
2023-05-10T05:55:33.430Z,100626.45
2023-05-10T06:00:36.134Z,100623.17
2023-05-10T06:05:38.820Z,100621.50
2023-05-10T06:10:41.411Z,100625.52
2023-05-10T06:15:45.359Z,100624.40
2023-05-10T06:20:50.766Z,100627.27
2023-05-10T06:25:54.280Z,100621.46
2023-05-10T06:30:57.902Z,100620.31
2023-05-10T06:36:01.200Z,100620.96
2023-05-10T06:41:04.110Z,100621.05
2023-05-10T06:46:08.211Z,100618.09
2023-05-10T06:51:11.115Z,100615.15
2023-05-10T06:56:13.701Z,100614.64
2023-05-10T07:01:16.374Z,100609.66
2023-05-10T07:06:32.291Z,100607.05
2023-05-10T07:11:38.350Z,100611.47
2023-05-10T07:16:40.972Z,100610.09
2023-05-10T07:21:44.310Z,100613.98
2023-05-10T07:26:47.199Z,100619.02
2023-05-10T07:31:50.038Z,100616.11
2023-05-10T07:36:53.563Z,100614.06
2023-05-10T07:41:56.783Z,100610.98
2023-05-10T07:46:59.549Z,100612.80
2023-05-10T07:52:04.211Z,100614.87
2023-05-10T07:57:07.235Z,100614.70
2023-05-10T08:02:09.853Z,100607.53
2023-05-10T08:07:12.570Z,100614.61
2023-05-10T08:12:15.287Z,100607.56
2023-05-10T08:17:20.083Z,100603.34
2023-05-10T08:22:23.182Z,100608.95
2023-05-10T08:27:25.951Z,100599.70
2023-05-10T08:32:28.518Z,100602.86
2023-05-10T08:37:31.339Z,100599.58
2023-05-10T08:42:37.113Z,100603.27
2023-05-10T08:47:40.182Z,100614.27
2023-05-10T08:52:43.597Z,100605.89
2023-05-10T08:57:46.491Z,100605.73
2023-05-10T09:02:51.176Z,100604.66
2023-05-10T09:07:53.917Z,100603.86
2023-05-10T09:12:59.336Z,100603.10
2023-05-10T09:18:03.356Z,100601.57
2023-05-10T09:23:06.783Z,100599.89
2023-05-10T09:28:10.561Z,100597.34
2023-05-10T09:33:13.202Z,100592.96
2023-05-10T09:38:16.340Z,100590.55
2023-05-10T09:43:18.907Z,100590.20
2023-05-10T09:48:25.014Z,100585.70
2023-05-10T09:53:27.571Z,100592.36
2023-05-10T09:58:30.374Z,100585.14
2023-05-10T10:03:33.971Z,100580.86
2023-05-10T10:08:37.229Z,100571.11
2023-05-10T10:13:41.353Z,100573.48
2023-05-10T10:18:45.347Z,100562.14
2023-05-10T10:23:51.992Z,100554.82
2023-05-10T10:29:26.538Z,100542.88
2023-05-10T10:34:31.432Z,100538.99
2023-05-10T10:39:34.175Z,100537.30
2023-05-10T10:44:39.262Z,100532.55
2023-05-10T10:49:41.910Z,100517.78
2023-05-10T10:54:53.377Z,100515.11
2023-05-10T11:00:23.952Z,100518.88
2023-05-10T11:05:38.563Z,100518.68
2023-05-10T11:10:49.719Z,100510.76
2023-05-10T11:15:52.481Z,100504.46
2023-05-10T11:21:10.194Z,100498.99
2023-05-10T11:26:13.414Z,100495.14
2023-05-10T11:31:17.827Z,100488.46
2023-05-10T11:36:22.520Z,100478.95
2023-05-10T11:41:26.445Z,100474.48
2023-05-10T11:46:29.620Z,100471.36
2023-05-10T11:51:36.143Z,100481.19
2023-05-10T11:56:40.188Z,100469.52
2023-05-10T12:01:43.838Z,100468.50
2023-05-10T12:06:47.518Z,100461.52
2023-05-10T12:11:50.053Z,100463.55
2023-05-10T12:16:52.723Z,100462.51
2023-05-10T12:21:55.368Z,100462.58
2023-05-10T12:26:57.973Z,100466.90
2023-05-10T12:32:01.332Z,100469.60
2023-05-10T12:37:05.139Z,100468.20
2023-05-10T12:42:08.059Z,100473.52
2023-05-10T12:47:10.719Z,100470.96
2023-05-10T12:52:13.234Z,100467.66
2023-05-10T12:57:16.002Z,100464.88
2023-05-10T13:02:19.136Z,100462.20
2023-05-10T13:07:21.826Z,100457.80
2023-05-10T13:12:24.507Z,100464.66
2023-05-10T13:17:27.149Z,100457.61
2023-05-10T13:22:39.741Z,100456.15
2023-05-10T13:27:43.004Z,100446.30
2023-05-10T13:38:08.723Z,100445.55
2023-05-10T13:43:11.369Z,100438.30
2023-05-10T13:48:14.571Z,100438.05
2023-05-10T13:53:17.185Z,100435.98
2023-05-10T13:58:20.536Z,100436.10
2023-05-10T14:03:23.475Z,100430.72
2023-05-10T14:08:28.227Z,100420.67
2023-05-10T14:13:31.373Z,100432.08
2023-05-10T14:18:34.060Z,100428.52
2023-05-10T14:23:36.790Z,100429.77
2023-05-10T14:28:39.491Z,100429.35
2023-05-10T14:33:42.241Z,100430.26
2023-05-10T14:38:45.019Z,100430.62
2023-05-10T14:43:47.541Z,100429.23
2023-05-10T14:48:50.159Z,100424.79
2023-05-10T14:53:53.114Z,100426.84
2023-05-10T14:58:56.643Z,100424.75
2023-05-10T15:04:00.012Z,100429.67
2023-05-10T15:09:04.523Z,100423.80
2023-05-10T15:14:07.383Z,100422.18
2023-05-10T15:19:10.992Z,100416.75
2023-05-10T15:24:13.612Z,100420.24
2023-05-10T15:29:20.927Z,100414.80
2023-05-10T15:34:23.510Z,100419.42
2023-05-10T15:39:26.061Z,100413.11
2023-05-10T15:44:28.933Z,100413.66
2023-05-10T15:49:31.679Z,100413.84
2023-05-10T15:54:34.251Z,100414.31
2023-05-10T15:59:37.748Z,100411.23
2023-05-10T16:04:40.359Z,100413.20
2023-05-10T16:09:43.111Z,100413.15
2023-05-10T16:14:46.759Z,100410.86
2023-05-10T16:19:49.393Z,100404.73
2023-05-10T16:24:53.628Z,100406.06
2023-05-10T16:29:56.264Z,100397.09
2023-05-10T16:34:59.002Z,100396.52
2023-05-10T16:40:01.666Z,100398.46
2023-05-10T16:45:07.684Z,100404.45
2023-05-10T16:50:10.468Z,100405.48
2023-05-10T16:55:13.078Z,100405.37
2023-05-10T17:00:16.306Z,100401.38
2023-05-10T17:05:19.063Z,100404.20
2023-05-10T17:10:21.818Z,100402.17
2023-05-10T17:15:24.407Z,100402.10
2023-05-10T17:20:27.503Z,100416.13
2023-05-10T17:25:30.063Z,100416.94
2023-05-10T17:30:32.967Z,100422.73
2023-05-10T17:35:35.644Z,100425.80
2023-05-10T17:40:40.928Z,100434.48
2023-05-10T17:45:44.793Z,100440.55
2023-05-10T17:50:50.018Z,100440.46
2023-05-10T17:55:52.736Z,100445.22
2023-05-10T18:00:58.390Z,100449.68
2023-05-10T18:06:01.259Z,100456.80
2023-05-10T18:11:03.930Z,100464.94
2023-05-10T18:16:08.881Z,100462.13
2023-05-10T18:21:11.472Z,100462.41
2023-05-10T18:26:14.160Z,100463.45
2023-05-10T18:31:16.811Z,100469.28
2023-05-10T18:36:19.460Z,100477.46
2023-05-10T18:41:22.417Z,100484.77
2023-05-10T18:46:25.153Z,100489.87
2023-05-10T18:51:29.551Z,100495.77
2023-05-10T18:56:32.187Z,100497.08
2023-05-10T19:01:34.742Z,100499.39
2023-05-10T19:06:37.398Z,100498.49
2023-05-10T19:11:40.989Z,100504.12
2023-05-10T19:16:43.712Z,100504.51
2023-05-10T19:21:48.350Z,100507.58
2023-05-10T19:26:51.988Z,100507.91
2023-05-10T19:31:54.627Z,100505.11
2023-05-10T19:36:57.266Z,100507.16
2023-05-10T19:42:00.773Z,100511.55
2023-05-10T19:47:05.198Z,100517.02
2023-05-10T19:52:08.156Z,100522.70
2023-05-10T19:57:12.027Z,100524.16
2023-05-10T20:02:15.476Z,100532.14
2023-05-10T20:07:20.969Z,100535.52
2023-05-10T20:12:26.465Z,100538.84
2023-05-10T20:17:29.472Z,100538.96
2023-05-10T20:22:32.078Z,100538.95
2023-05-10T20:27:38.612Z,100542.20
2023-05-10T20:32:49.157Z,100541.45
2023-05-10T20:37:53.050Z,100547.46
2023-05-10T20:42:55.789Z,100551.27
2023-05-10T20:47:58.523Z,100546.56
2023-05-10T20:53:01.383Z,100546.88
2023-05-10T20:58:05.104Z,100550.33
2023-05-10T21:03:08.086Z,100555.86
2023-05-10T21:08:10.765Z,100554.23
2023-05-10T21:13:13.458Z,100559.88
2023-05-10T21:18:16.013Z,100557.40
2023-05-10T21:23:18.659Z,100566.52
2023-05-10T21:28:21.649Z,100567.27
2023-05-10T21:33:24.362Z,100564.18
2023-05-10T21:38:29.996Z,100565.66
2023-05-10T21:43:32.765Z,100564.34
2023-05-10T21:48:36.376Z,100566.98
2023-05-10T21:53:39.435Z,100568.21
2023-05-10T21:58:41.943Z,100566.43
2023-05-10T22:03:44.774Z,100570.03
2023-05-10T22:08:47.422Z,100574.33
2023-05-10T22:13:50.003Z,100577.69
2023-05-10T22:18:54.418Z,100579.08
2023-05-10T22:23:57.145Z,100579.07
2023-05-10T22:28:59.862Z,100585.52
2023-05-10T22:34:02.516Z,100584.88
2023-05-10T22:39:05.039Z,100587.35
2023-05-10T22:44:08.244Z,100588.98
2023-05-10T22:49:11.350Z,100590.13
2023-05-10T22:54:14.050Z,100592.66
2023-05-10T22:59:16.580Z,100599.17
2023-05-10T23:04:19.177Z,100596.15
2023-05-10T23:09:21.794Z,100595.05
2023-05-10T23:14:24.433Z,100598.61
2023-05-10T23:19:26.984Z,100601.63
2023-05-10T23:24:29.575Z,100596.95
2023-05-10T23:29:32.978Z,100593.48
2023-05-10T23:34:36.521Z,100594.23
2023-05-10T23:39:39.065Z,100592.14
2023-05-10T23:44:41.794Z,100601.67
2023-05-10T23:49:44.455Z,100603.12
2023-05-10T23:54:47.291Z,100607.69
2023-05-10T23:59:51.131Z,100611.20
